createdAt,value
2023-05-20T07:00:37.979Z,21.09
2023-05-20T07:06:29.794Z,21.19
2023-05-20T07:09:24.512Z,21.34
2023-05-20T07:12:42.387Z,21.34
2023-05-20T07:15:21.069Z,21.38
2023-05-20T07:18:11.835Z,21.50
2023-05-20T07:20:56.081Z,21.59
2023-05-20T07:27:41.547Z,21.68
2023-05-20T07:30:16.011Z,21.74
2023-05-20T07:36:11.384Z,21.88
2023-05-20T07:38:45.047Z,21.97
2023-05-20T07:41:27.022Z,21.92
2023-05-20T07:44:00.464Z,22.04
2023-05-20T07:46:52.774Z,22.02
2023-05-20T07:49:37.889Z,22.21
2023-05-20T08:03:11.739Z,22.36
2023-05-20T08:06:57.387Z,22.40
2023-05-20T08:09:41.248Z,22.53
2023-05-20T08:15:44.418Z,22.58
2023-05-20T08:18:20.243Z,22.54
2023-05-20T08:21:10.175Z,22.59
2023-05-20T08:23:47.488Z,22.64
2023-05-20T08:26:22.956Z,22.77
2023-05-20T08:29:08.651Z,22.71
2023-05-20T08:32:00.831Z,22.84
2023-05-20T08:35:12.880Z,23.02
2023-05-20T08:38:20.690Z,22.98
2023-05-20T08:41:17.124Z,23.06
2023-05-20T08:44:02.287Z,23.13
2023-05-20T08:46:33.988Z,23.18
2023-05-20T08:49:48.960Z,23.24
2023-05-20T08:56:23.769Z,23.32
2023-05-20T08:59:14.442Z,23.49
2023-05-20T09:02:04.672Z,23.50
2023-05-20T09:05:02.257Z,23.63
2023-05-20T09:08:26.987Z,23.58
2023-05-20T09:11:25.480Z,23.57
2023-05-20T09:14:12.045Z,23.71
2023-05-20T09:16:54.069Z,23.84
2023-05-20T09:19:25.792Z,23.81
2023-05-20T09:23:11.455Z,23.97
2023-05-20T09:29:32.955Z,24.02
2023-05-20T09:32:42.363Z,24.18
2023-05-20T09:38:52.383Z,24.19
2023-05-20T09:42:17.852Z,24.35
2023-05-20T09:51:58.138Z,24.38
2023-05-20T09:55:16.668Z,24.44
2023-05-20T09:58:48.209Z,24.37
2023-05-20T10:01:57.608Z,24.48
2023-05-20T10:05:41.905Z,24.61
2023-05-20T10:09:06.888Z,24.67
2023-05-20T10:16:05.341Z,24.79
2023-05-20T10:19:27.785Z,24.82
2023-05-20T10:22:40.017Z,24.92
2023-05-20T10:25:24.293Z,24.99
2023-05-20T10:28:23.233Z,25.07
2023-05-20T10:31:22.450Z,25.17
2023-05-20T10:34:19.224Z,25.17
2023-05-20T10:40:22.538Z,25.20
2023-05-20T10:43:46.518Z,25.31
2023-05-20T10:52:59.442Z,25.42
2023-05-20T10:59:43.891Z,25.75
2023-05-20T11:02:33.139Z,25.76
2023-05-20T11:05:34.678Z,25.77
2023-05-20T11:08:11.031Z,25.91
2023-05-20T11:14:38.698Z,26.19
2023-05-20T11:17:29.876Z,26.22
2023-05-20T11:20:18.913Z,26.23
2023-05-20T11:23:01.929Z,26.29
2023-05-20T11:25:31.277Z,26.30
2023-05-20T11:28:07.127Z,26.32
2023-05-20T11:30:54.740Z,26.37
2023-05-20T11:33:51.063Z,26.35
2023-05-20T11:39:20.281Z,26.27
2023-05-20T11:41:55.900Z,26.38
2023-05-20T12:26:49.657Z,26.87
2023-05-20T12:34:32.754Z,26.86
2023-05-20T12:46:07.101Z,27.17
2023-05-20T12:48:35.667Z,27.20
2023-05-20T12:51:21.426Z,27.26
2023-05-20T12:53:55.249Z,27.26
2023-05-20T12:56:35.024Z,27.23
2023-05-20T12:59:04.073Z,27.25
2023-05-20T13:01:37.327Z,27.31
2023-05-20T13:04:17.575Z,27.45
2023-05-20T13:06:54.654Z,27.43
2023-05-20T13:09:28.544Z,27.41
2023-05-20T13:12:01.667Z,27.39
2023-05-20T13:14:39.964Z,27.38
2023-05-20T13:17:14.474Z,27.37
2023-05-20T13:22:34.816Z,27.42
2023-05-20T13:25:09.446Z,27.46
2023-05-20T13:27:41.847Z,27.54
2023-05-20T13:30:13.767Z,27.56
2023-05-20T13:32:44.402Z,27.53
2023-05-20T13:35:17.010Z,27.57
2023-05-20T13:37:48.272Z,27.59
2023-05-20T13:40:17.594Z,27.66
2023-05-20T13:42:46.143Z,27.72
2023-05-20T13:45:15.193Z,27.77
2023-05-20T13:47:48.733Z,27.83
2023-05-20T13:50:19.262Z,27.89
2023-05-20T13:52:48.349Z,27.90
2023-05-20T13:55:24.715Z,27.83
2023-05-20T13:58:26.549Z,27.93
2023-05-20T14:01:05.182Z,27.88
2023-05-20T14:03:42.741Z,27.96
2023-05-20T14:06:27.605Z,27.92
2023-05-20T14:09:00.152Z,27.85
2023-05-20T14:11:37.421Z,27.79
2023-05-20T14:14:10.713Z,27.77
2023-05-20T14:16:43.847Z,27.87
2023-05-20T14:19:17.498Z,27.89
2023-05-20T14:21:50.780Z,27.85
2023-05-20T14:24:23.931Z,27.85
2023-05-20T14:27:03.426Z,27.86
2023-05-20T14:30:07.693Z,27.89
2023-05-20T14:32:50.609Z,27.99
2023-05-20T14:35:42.380Z,28.06
2023-05-20T14:38:27.367Z,28.17
2023-05-20T14:41:03.071Z,28.33
2023-05-20T14:43:50.231Z,28.40
2023-05-20T14:46:22.745Z,28.34
2023-05-20T14:49:02.944Z,28.35
2023-05-20T14:52:10.708Z,28.23
2023-05-20T14:57:55.115Z,28.21
2023-05-20T15:00:38.013Z,28.22
2023-05-20T15:06:27.909Z,28.31
2023-05-20T15:09:42.732Z,28.26
2023-05-20T15:16:01.615Z,28.29
2023-05-20T15:19:01.008Z,28.25
2023-05-20T15:22:10.712Z,28.21
2023-05-20T15:25:31.587Z,28.16
2023-05-20T15:28:29.586Z,28.08
2023-05-20T15:31:15.598Z,27.90
2023-05-20T15:33:51.069Z,27.85
2023-05-20T15:36:55.272Z,27.58
2023-05-20T15:39:46.394Z,27.59
2023-05-20T15:42:46.815Z,27.55
2023-05-20T15:48:58.247Z,27.32
2023-05-20T15:51:38.874Z,27.22
2023-05-20T15:54:31.177Z,27.06
2023-05-20T15:57:38.593Z,27.05
2023-05-20T16:00:42.671Z,27.02
2023-05-20T16:03:58.225Z,26.81
2023-05-20T16:06:54.825Z,26.80
2023-05-20T16:09:50.005Z,26.66
2023-05-20T16:16:13.936Z,26.43
2023-05-20T16:22:35.107Z,26.37
2023-05-20T16:25:18.706Z,26.35
2023-05-20T16:28:23.020Z,26.32
2023-05-20T16:31:27.570Z,26.28
2023-05-20T16:34:49.768Z,26.13
2023-05-20T16:38:01.692Z,25.92
2023-05-20T16:41:06.331Z,25.89
2023-05-20T16:47:50.441Z,25.73
2023-05-20T16:50:58.059Z,25.61
2023-05-20T16:53:43.666Z,25.67
2023-05-20T16:57:12.241Z,25.52
2023-05-20T17:03:57.362Z,25.39
2023-05-20T17:14:46.293Z,25.05
2023-05-20T17:17:40.587Z,25.00
2023-05-20T17:26:13.905Z,24.83
2023-05-20T17:40:28.450Z,24.48
2023-05-20T17:50:06.048Z,24.25
2023-05-20T18:00:53.744Z,23.91
2023-05-20T18:08:27.523Z,23.66
2023-05-20T18:18:45.512Z,23.25
2023-05-20T18:21:30.168Z,23.08
2023-05-20T18:24:08.132Z,23.05
2023-05-20T18:26:50.776Z,22.98
2023-05-20T18:29:38.460Z,22.93
2023-05-20T18:32:14.787Z,22.85
2023-05-20T18:35:52.696Z,22.82
2023-05-20T18:39:46.979Z,22.68
2023-05-20T18:43:56.940Z,22.60
2023-05-20T18:54:42.222Z,22.38
2023-05-20T19:05:20.795Z,22.16
2023-05-20T19:16:47.766Z,21.98
2023-05-20T19:44:09.934Z,21.73
2023-05-20T19:49:12.351Z,21.80
2023-05-20T20:02:45.583Z,21.79
2023-05-20T20:06:36.429Z,21.74
2023-05-20T20:10:37.130Z,21.64
2023-05-20T20:14:14.137Z,21.56
2023-05-20T20:22:05.565Z,21.51
2023-05-20T20:29:47.201Z,21.37
2023-05-20T20:33:39.122Z,21.31
2023-05-20T20:41:27.865Z,21.30
2023-05-20T20:43:35.482Z,21.30
2023-05-20T20:45:00.109Z,21.30
2023-05-20T20:48:33.257Z,21.30
2023-05-20T21:03:27.533Z,21.32
2023-05-20T21:18:15.191Z,21.08
2023-05-20T21:21:57.017Z,21.21
2023-05-20T21:40:29.684Z,20.97
2023-05-20T21:43:51.416Z,20.93
2023-05-20T21:58:01.879Z,20.69
2023-05-20T22:01:20.261Z,20.71
2023-05-20T22:04:12.572Z,20.64
2023-05-20T22:07:58.359Z,20.62
2023-05-20T22:11:09.456Z,20.59
2023-05-20T22:32:00.330Z,20.37
2023-05-20T22:35:25.225Z,20.27
2023-05-20T22:45:49.041Z,20.10
2023-05-20T22:48:53.491Z,20.06
2023-05-20T22:55:02.970Z,20.16
2023-05-20T22:58:24.234Z,20.07
2023-05-20T23:02:17.601Z,20.09
2023-05-20T23:05:25.902Z,20.15
2023-05-20T23:08:27.031Z,20.26
2023-05-20T23:11:35.943Z,20.16
2023-05-20T23:14:35.696Z,20.11
2023-05-20T23:17:43.738Z,20.13
2023-05-20T23:22:13.885Z,20.07
2023-05-20T23:25:24.915Z,20.10
2023-05-20T23:28:44.710Z,20.11
2023-05-20T23:32:12.906Z,20.14
2023-05-20T23:35:11.168Z,20.10
2023-05-20T23:38:32.381Z,20.12
2023-05-20T23:52:30.000Z,19.94
2023-05-20T23:55:45.881Z,19.93
2023-05-20T23:58:55.950Z,19.77
